Time;durP1;ratioP1;P1;durP2;ratioP2;P2;SDS_P1;SDS_P2;PMS_P1;PMS_P2;Temp;Humidity;BMP_temperature;BMP_pressure;BME280_temperature;BME280_humidity;BME280_pressure;Samples;Min_cycle;Max_cycle;Signal;HPM_P1;HPM_P2
2022/11/25 00:01:08;;;;;;;20.17;9.20;;;;;;;1.90;100.00;96203.47;5016057;28;20438;-75
2022/11/25 00:03:35;;;;;;;21.70;8.20;;;;;;;1.72;100.00;96187.41;5032400;28;20528;-75
2022/11/25 00:06:26;;;;;;;41.30;8.73;;;;;;;1.76;100.00;96195.50;5036005;28;20578;-75
2022/11/25 00:08:55;;;;;;;27.13;7.90;;;;;;;1.71;100.00;96195.53;5039800;28;20536;-75
2022/11/25 00:11:21;;;;;;;7.73;6.97;;;;;;;1.68;100.00;96180.44;5033794;28;20473;-75
2022/11/25 00:13:48;;;;;;;21.67;8.47;;;;;;;1.65;100.00;96173.94;5033059;28;20422;-75
2022/11/25 00:16:17;;;;;;;18.13;7.37;;;;;;;1.76;100.00;96198.09;5045672;28;20430;-75
2022/11/25 00:18:49;;;;;;;11.13;7.17;;;;;;;1.74;100.00;96190.56;5032317;28;20962;-76
2022/11/25 00:21:19;;;;;;;15.10;7.40;;;;;;;1.66;100.00;96198.94;5031912;28;20482;-76
2022/11/25 00:23:52;;;;;;;15.50;6.67;;;;;;;1.30;100.00;96176.78;5015607;28;20470;-76
2022/11/25 00:26:19;;;;;;;6.67;5.53;;;;;;;1.50;100.00;96200.13;5042444;28;20536;-76
2022/11/25 00:28:46;;;;;;;13.43;5.97;;;;;;;1.46;100.00;96199.06;5043544;28;21000;-75
2022/11/25 00:31:17;;;;;;;21.43;6.40;;;;;;;1.45;100.00;96181.91;5015397;28;20864;-75
2022/11/25 00:33:45;;;;;;;6.00;5.40;;;;;;;1.45;100.00;96200.13;5036795;28;20531;-75
2022/11/25 00:36:22;;;;;;;6.87;5.80;;;;;;;1.52;100.00;96212.88;5051980;28;20817;-75
2022/11/25 00:38:59;;;;;;;11.47;7.87;;;;;;;1.56;100.00;96216.47;5018734;28;20556;-75
2022/11/25 00:47:14;;;;;;;16.67;7.33;;;;;;;1.44;100.00;96217.59;5020878;28;20449;-76
2022/11/25 00:49:46;;;;;;;8.33;6.17;;;;;;;1.23;100.00;96223.19;5059823;28;20494;-75
2022/11/25 00:52:15;;;;;;;13.63;7.40;;;;;;;1.22;100.00;96213.84;5042430;28;20458;-75
2022/11/25 00:54:46;;;;;;;11.93;8.30;;;;;;;0.94;100.00;96181.44;5016336;28;20484;-75
2022/11/25 00:57:14;;;;;;;11.43;8.10;;;;;;;1.39;100.00;96237.69;5034204;28;20478;-76
2022/11/25 00:59:41;;;;;;;14.33;8.43;;;;;;;1.15;100.00;96212.28;5032197;28;20778;-74
2022/11/25 01:02:09;;;;;;;14.33;8.17;;;;;;;1.13;100.00;96211.78;5015463;28;20470;-74
2022/11/25 01:04:36;;;;;;;12.80;7.13;;;;;;;1.41;100.00;96241.56;5044098;28;20438;-74
2022/11/25 01:07:03;;;;;;;16.63;8.73;;;;;;;1.42;100.00;96250.16;5033116;28;20434;-74
2022/11/25 01:09:30;;;;;;;16.37;6.77;;;;;;;1.50;100.00;96273.06;5015159;28;20474;-74
2022/11/25 01:11:57;;;;;;;8.40;5.87;;;;;;;1.39;100.00;96279.34;5031441;28;20545;-74
2022/11/25 01:14:24;;;;;;;8.40;5.93;;;;;;;1.02;100.00;96248.53;5032387;28;20429;-74
2022/11/25 01:16:51;;;;;;;17.60;6.70;;;;;;;0.99;100.00;96257.66;5014887;28;20474;-74
2022/11/25 01:19:19;;;;;;;22.37;6.67;;;;;;;1.16;100.00;96275.53;5037096;28;20990;-74
2022/11/25 01:21:45;;;;;;;24.63;5.60;;;;;;;1.04;100.00;96260.22;5018211;28;20443;-74
2022/11/25 01:24:14;;;;;;;5.03;4.20;;;;;;;0.37;100.00;96159.28;5037164;28;20631;-74
2022/11/25 01:26:42;;;;;;;10.30;5.10;;;;;;;1.10;100.00;96248.75;5051549;28;20865;-74
2022/11/25 01:29:14;;;;;;;17.67;6.10;;;;;;;0.99;100.00;96242.03;5030769;28;20577;-74
2022/11/25 01:31:42;;;;;;;5.60;4.90;;;;;;;1.16;100.00;96267.72;5030705;28;20496;-74
2022/11/25 01:34:21;;;;;;;49.87;9.03;;;;;;;1.18;100.00;96268.25;5030981;28;20434;-74
2022/11/25 01:36:48;;;;;;;8.90;5.30;;;;;;;1.17;100.00;96275.28;5041166;28;20840;-74
2022/11/25 01:39:18;;;;;;;13.23;6.07;;;;;;;1.05;100.00;96266.22;5030573;28;20474;-74
2022/11/25 01:41:46;;;;;;;8.80;4.80;;;;;;;0.86;100.00;96240.00;5030559;28;20926;-74
2022/11/25 01:44:19;;;;;;;10.83;6.30;;;;;;;1.11;100.00;96259.97;5030848;28;20422;-74
2022/11/25 01:46:57;;;;;;;8.67;5.30;;;;;;;1.12;100.00;96251.09;5031755;28;20468;-74
2022/11/25 01:49:26;;;;;;;6.23;4.53;;;;;;;1.07;100.00;96254.50;5017080;28;20469;-74
2022/11/25 01:52:21;;;;;;;11.70;5.43;;;;;;;1.01;100.00;96255.56;5026844;28;20465;-74
2022/11/25 01:55:12;;;;;;;31.10;7.50;;;;;;;0.95;100.00;96256.66;5028143;28;20445;-74
2022/11/25 01:58:20;;;;;;;23.77;4.57;;;;;;;0.98;100.00;96252.72;5030456;28;20470;-74
2022/11/25 02:00:50;;;;;;;9.13;4.10;;;;;;;0.82;100.00;96220.78;5012393;28;20435;-74
2022/11/25 02:03:45;;;;;;;9.53;4.60;;;;;;;0.93;100.00;96245.69;5012947;28;21029;-74
2022/11/25 02:06:25;;;;;;;12.47;3.83;;;;;;;0.98;100.00;96248.28;5032405;28;20484;-75
2022/11/25 02:09:04;;;;;;;19.50;4.80;;;;;;;0.93;100.00;96252.72;5016625;28;20504;-75
2022/11/25 02:11:33;;;;;;;3.90;2.67;;;;;;;0.92;100.00;96245.97;5048819;28;20473;-74
2022/11/25 02:14:05;;;;;;;21.30;3.83;;;;;;;0.70;100.00;96247.09;5028352;28;20471;-74
2022/11/25 02:16:32;;;;;;;19.83;5.10;;;;;;;0.62;100.00;96236.44;5002521;28;20873;-74
2022/11/25 02:18:59;;;;;;;7.23;3.90;;;;;;;0.45;100.00;96227.13;5009597;28;20465;-74
2022/11/25 02:21:46;;;;;;;8.90;4.10;;;;;;;0.55;100.00;96234.13;5013001;28;21052;-74
2022/11/25 02:24:43;;;;;;;4.83;3.07;;;;;;;0.17;100.00;96168.69;5002736;28;20472;-74
2022/11/25 02:27:12;;;;;;;7.70;5.23;;;;;;;0.62;100.00;96233.84;4998039;28;20992;-74
2022/11/25 02:29:42;;;;;;;4.23;3.27;;;;;;;0.67;100.00;96226.81;5012181;28;21064;-74
2022/11/25 02:32:08;;;;;;;16.70;5.47;;;;;;;0.53;100.00;96213.56;5014645;28;20513;-74
2022/11/25 02:34:45;;;;;;;22.97;5.67;;;;;;;0.48;100.00;96220.63;5025049;28;20487;-74
2022/11/25 02:37:13;;;;;;;24.37;7.53;;;;;;;0.22;100.00;96191.28;5040248;28;20437;-74
2022/11/25 02:39:40;;;;;;;23.27;7.63;;;;;;;0.28;100.00;96208.44;5029634;28;20454;-74
2022/11/25 02:42:07;;;;;;;22.33;6.07;;;;;;;0.48;100.00;96210.22;5033348;28;20532;-74
2022/11/25 02:44:34;;;;;;;15.30;5.17;;;;;;;0.64;100.00;96224.72;5033238;28;20438;-74
2022/11/25 02:47:01;;;;;;;12.87;4.33;;;;;;;0.64;100.00;96216.91;5029592;28;20446;-74
2022/11/25 02:49:28;;;;;;;20.67;5.63;;;;;;;0.58;100.00;96205.75;5010019;28;20485;-74
2022/11/25 02:51:55;;;;;;;16.43;3.87;;;;;;;0.61;100.00;96204.44;5029562;28;20469;-74
2022/11/25 02:54:22;;;;;;;10.40;4.87;;;;;;;0.76;100.00;96221.81;5029782;28;20438;-74
2022/11/25 02:56:49;;;;;;;10.03;4.20;;;;;;;0.64;100.00;96209.13;5049373;28;20434;-74
2022/11/25 02:59:15;;;;;;;8.80;4.63;;;;;;;0.48;100.00;96171.97;5049319;28;20945;-74
2022/11/25 03:01:42;;;;;;;26.83;7.37;;;;;;;0.47;100.00;96206.84;5022481;28;20442;-74
2022/11/25 03:04:09;;;;;;;27.57;7.20;;;;;;;0.54;100.00;96211.78;5023469;28;20488;-74
2022/11/25 03:06:36;;;;;;;20.70;5.60;;;;;;;0.26;100.00;96202.72;5013082;28;20437;-74
2022/11/25 03:09:05;;;;;;;23.43;5.93;;;;;;;0.35;100.00;96221.94;5029584;28;20516;-74
2022/11/25 03:14:21;;;;;;;14.43;4.53;;;;;;;0.47;100.00;96224.25;5029347;28;20974;-74
2022/11/25 03:16:48;;;;;;;18.97;4.70;;;;;;;0.52;100.00;96235.41;5029593;28;20937;-74
2022/11/25 03:19:14;;;;;;;10.43;4.93;;;;;;;0.54;100.00;96228.16;5013078;28;20485;-74
2022/11/25 03:21:41;;;;;;;14.03;5.40;;;;;;;0.32;100.00;96206.88;5029302;28;20446;-74
2022/11/25 03:24:08;;;;;;;15.80;6.80;;;;;;;0.43;100.00;96218.03;5017415;28;20437;-74
2022/11/25 03:26:34;;;;;;;15.77;6.67;;;;;;;0.39;100.00;96209.97;5050668;28;20947;-74
2022/11/25 03:29:02;;;;;;;10.30;5.80;;;;;;;0.48;100.00;96215.41;5017244;28;20838;-74
2022/11/25 03:31:28;;;;;;;14.10;6.73;;;;;;;0.50;100.00;96240.09;5033043;28;20522;-74
2022/11/25 03:33:55;;;;;;;10.30;5.50;;;;;;;0.42;100.00;96216.47;5029932;28;20525;-74
2022/11/25 03:36:22;;;;;;;21.37;5.47;;;;;;;0.49;100.00;96215.16;5042716;28;20535;-74
2022/11/25 03:38:48;;;;;;;14.00;6.20;;;;;;;0.72;100.00;96247.59;5033219;28;20462;-74
2022/11/25 03:41:15;;;;;;;34.97;7.40;;;;;;;0.67;100.00;96247.63;5032825;28;20458;-74
2022/11/25 03:43:41;;;;;;;32.83;6.60;;;;;;;0.56;100.00;96222.69;5033127;28;20495;-74
2022/11/25 03:46:08;;;;;;;14.30;5.40;;;;;;;0.62;100.00;96220.84;5016966;28;20892;-74
2022/11/25 03:48:35;;;;;;;21.63;6.53;;;;;;;0.73;100.00;96248.38;5016468;28;20461;-74
2022/11/25 03:51:02;;;;;;;17.63;6.27;;;;;;;0.63;100.00;96256.97;5016536;28;20469;-74
2022/11/25 03:53:28;;;;;;;29.13;7.87;;;;;;;0.50;100.00;96221.13;5016541;28;20438;-74
2022/11/25 03:55:58;;;;;;;17.97;6.23;;;;;;;0.80;100.00;96257.47;5016947;28;20445;-74
2022/11/25 03:58:25;;;;;;;7.10;4.53;;;;;;;0.95;100.00;96264.44;5039943;28;20457;-74
2022/11/25 04:00:52;;;;;;;24.40;5.30;;;;;;;0.78;100.00;96248.34;5052491;28;20446;-74
2022/11/25 04:03:20;;;;;;;13.03;4.37;;;;;;;0.64;100.00;96245.53;5024717;28;20461;-73
2022/11/25 04:05:47;;;;;;;20.20;6.40;;;;;;;0.29;100.00;96241.19;5032564;28;20442;-72
2022/11/25 04:08:14;;;;;;;15.80;5.50;;;;;;;0.41;100.00;96244.31;5016015;28;20469;-74
2022/11/25 04:10:43;;;;;;;15.53;5.40;;;;;;;0.46;100.00;96252.09;5045515;28;20443;-72
2022/11/25 04:13:10;;;;;;;23.23;5.03;;;;;;;0.42;100.00;96234.69;5016026;28;20466;-72
2022/11/25 04:15:49;;;;;;;19.90;5.10;;;;;;;0.40;100.00;96260.16;5032360;28;20617;-72
2022/11/25 04:18:17;;;;;;;24.17;5.70;;;;;;;0.52;100.00;96271.81;5043231;28;20527;-72
2022/11/25 04:20:49;;;;;;;10.13;4.53;;;;;;;0.39;100.00;96243.75;5033929;28;20461;-73
2022/11/25 04:23:16;;;;;;;28.43;7.40;;;;;;;0.44;100.00;96256.00;5032140;28;20430;-73
2022/11/25 04:25:51;;;;;;;22.93;5.53;;;;;;;0.47;100.00;96258.84;5018952;28;20476;-72
2022/11/25 04:28:23;;;;;;;18.10;6.40;;;;;;;0.35;100.00;96219.34;5041357;28;20536;-73
2022/11/25 04:30:50;;;;;;;11.40;4.87;;;;;;;0.65;100.00;96251.50;5032124;28;20533;-73
2022/11/25 04:33:17;;;;;;;20.43;6.10;;;;;;;0.45;100.00;96240.13;5032147;28;20468;-73
2022/11/25 04:35:46;;;;;;;22.47;5.97;;;;;;;0.56;100.00;96257.28;5036984;28;20434;-73
2022/11/25 04:38:12;;;;;;;25.87;6.50;;;;;;;0.26;100.00;96223.50;5036669;28;20457;-73
2022/11/25 04:40:39;;;;;;;13.43;4.87;;;;;;;0.38;100.00;96237.00;5039923;28;20957;-73
2022/11/25 04:43:11;;;;;;;55.33;9.60;;;;;;;0.43;100.00;96244.81;5036271;28;20442;-73
2022/11/25 04:45:46;;;;;;;15.80;5.47;;;;;;;0.49;100.00;96238.56;5036261;28;20487;-73
2022/11/25 04:48:32;;;;;;;14.17;5.53;;;;;;;0.45;100.00;96232.31;5051499;28;20474;-73
2022/11/25 04:50:59;;;;;;;37.53;7.60;;;;;;;0.45;100.00;96245.31;5051485;28;20441;-72
2022/11/25 04:53:26;;;;;;;16.57;6.17;;;;;;;0.58;100.00;96249.97;5044756;28;20818;-73
2022/11/25 04:55:53;;;;;;;32.30;7.67;;;;;;;0.60;100.00;96257.53;5015246;28;20445;-73
2022/11/25 04:59:38;;;;;;;45.40;7.70;;;;;;;0.73;100.00;96264.00;5015438;28;20454;-72
2022/11/25 05:01:07;;;;;;;34.10;10.30;;;;;;;0.42;100.00;96212.06;5031330;28;20449;-73
2022/11/25 05:03:34;;;;;;;28.73;9.43;;;;;;;0.75;100.00;96235.88;5031409;28;20521;-73
2022/11/25 05:06:08;;;;;;;21.03;9.00;;;;;;;0.73;100.00;96223.13;5035412;28;20452;-72
2022/11/25 05:08:36;;;;;;;19.03;9.00;;;;;;;0.91;100.00;96228.78;5023464;28;20872;-73
2022/11/25 05:11:03;;;;;;;30.67;12.27;;;;;;;0.61;100.00;96186.25;5031163;28;20442;-73
2022/11/25 05:13:30;;;;;;;17.90;9.77;;;;;;;0.58;100.00;96176.38;5031459;28;20441;-73
2022/11/25 05:15:58;;;;;;;38.07;12.13;;;;;;;0.99;100.00;96236.84;5015231;28;20561;-73
2022/11/25 05:18:25;;;;;;;42.87;12.00;;;;;;;0.76;100.00;96199.19;5031392;28;20485;-73
2022/11/25 05:20:52;;;;;;;31.70;9.73;;;;;;;1.12;100.00;96235.47;5038536;28;20940;-73
2022/11/25 05:23:20;;;;;;;43.97;11.60;;;;;;;1.07;100.00;96236.28;5034940;28;20441;-72
2022/11/25 05:25:47;;;;;;;22.47;9.83;;;;;;;1.14;100.00;96243.78;5051481;28;20437;-72
2022/11/25 05:28:30;;;;;;;31.63;9.00;;;;;;;0.97;100.00;96205.09;5022294;28;20458;-73
2022/11/25 05:30:57;;;;;;;39.70;10.73;;;;;;;1.01;100.00;96232.13;5031501;28;20442;-72
2022/11/25 05:33:24;;;;;;;31.33;10.10;;;;;;;0.79;100.00;96205.69;5031388;28;20465;-73
2022/11/25 05:35:59;;;;;;;34.53;9.70;;;;;;;0.72;100.00;96169.56;5036773;28;20434;-73
2022/11/25 05:38:31;;;;;;;30.40;11.53;;;;;;;0.95;100.00;96222.81;5037526;28;20469;-73
2022/11/25 05:41:06;;;;;;;73.43;13.70;;;;;;;1.24;100.00;96235.16;5051029;28;20445;-73
2022/11/25 05:43:33;;;;;;;23.33;11.73;;;;;;;1.11;100.00;96216.47;5032348;28;20530;-73
2022/11/25 05:46:07;;;;;;;36.90;12.50;;;;;;;1.35;100.00;96241.88;5027829;28;20465;-72
2022/11/25 05:48:35;;;;;;;21.60;9.87;;;;;;;1.29;100.00;96246.31;5030112;28;20861;-73
2022/11/25 05:51:03;;;;;;;33.20;11.37;;;;;;;1.24;100.00;96248.19;5014401;28;20465;-73
2022/11/25 05:53:31;;;;;;;71.00;11.80;;;;;;;1.35;100.00;96244.47;5030823;28;20986;-73
2022/11/25 05:56:05;;;;;;;21.73;11.10;;;;;;;1.06;100.00;96218.31;5029329;28;20445;-73
2022/11/25 05:58:58;;;;;;;22.13;10.40;;;;;;;1.40;100.00;96250.44;5050468;28;20534;-73
2022/11/25 06:01:32;;;;;;;20.40;10.67;;;;;;;1.50;100.00;96260.03;5044049;28;20430;-72
2022/11/25 06:04:01;;;;;;;18.50;8.97;;;;;;;1.26;100.00;96225.25;5030859;28;20441;-73
2022/11/25 06:06:28;;;;;;;18.77;10.33;;;;;;;1.47;100.00;96263.19;5017331;28;20505;-72
2022/11/25 06:08:55;;;;;;;16.47;9.60;;;;;;;1.57;100.00;96249.28;5043839;28;20489;-72
2022/11/25 06:11:22;;;;;;;17.67;8.93;;;;;;;1.41;100.00;96210.31;5035540;28;20468;-73
2022/11/25 06:13:48;;;;;;;16.83;8.20;;;;;;;1.41;100.00;96222.56;5045016;28;20437;-73
2022/11/25 06:16:21;;;;;;;16.80;9.47;;;;;;;1.41;100.00;96235.59;5042154;28;20833;-73
2022/11/25 06:18:55;;;;;;;26.40;10.37;;;;;;;1.50;100.00;96236.56;5030128;28;20466;-74
2022/11/25 06:21:21;;;;;;;14.97;8.20;;;;;;;1.76;100.00;96264.03;5030212;28;20867;-73
2022/11/25 06:23:48;;;;;;;22.47;10.30;;;;;;;1.70;100.00;96235.66;5029901;28;20453;-73
2022/11/25 06:26:21;;;;;;;22.77;9.63;;;;;;;1.90;100.00;96261.59;5013866;28;20448;-73
2022/11/25 06:28:53;;;;;;;35.67;9.77;;;;;;;1.51;100.00;96226.94;5029786;28;20458;-73
2022/11/25 06:31:22;;;;;;;24.07;8.93;;;;;;;1.82;100.00;96271.81;5013480;28;20438;-73
2022/11/25 06:34:12;;;;;;;13.67;9.00;;;;;;;1.55;100.00;96252.16;5023015;28;20423;-73
2022/11/25 06:36:39;;;;;;;19.57;9.60;;;;;;;1.54;100.00;96245.41;5040117;28;20875;-73
2022/11/25 06:39:06;;;;;;;25.17;11.20;;;;;;;1.63;100.00;96243.00;5039428;28;20956;-73
2022/11/25 06:41:33;;;;;;;12.73;8.53;;;;;;;1.57;100.00;96251.91;5049570;28;20485;-73
2022/11/25 06:43:59;;;;;;;21.57;10.50;;;;;;;1.81;100.00;96270.25;5049369;28;20433;-72
2022/11/25 06:46:26;;;;;;;44.60;13.03;;;;;;;1.69;100.00;96287.00;5035839;28;20426;-72
2022/11/25 06:48:53;;;;;;;37.30;13.47;;;;;;;1.63;100.00;96285.47;5031045;28;20449;-72
2022/11/25 06:51:19;;;;;;;59.90;19.83;;;;;;;1.42;100.00;96252.75;5030916;28;20771;-72
2022/11/25 06:53:46;;;;;;;39.33;16.87;;;;;;;1.59;100.00;96279.22;5030880;28;20462;-72
2022/11/25 06:56:14;;;;;;;29.60;11.87;;;;;;;1.60;100.00;96282.63;5018910;28;20443;-72
2022/11/25 06:58:41;;;;;;;31.70;11.47;;;;;;;1.62;100.00;96283.94;5041615;28;20446;-72
2022/11/25 07:01:21;;;;;;;38.90;11.90;;;;;;;1.63;100.00;96290.69;5029254;28;20460;-72
2022/11/25 07:03:50;;;;;;;23.53;9.70;;;;;;;1.43;100.00;96275.16;5015604;28;20940;-72
2022/11/25 07:06:18;;;;;;;27.33;10.33;;;;;;;1.60;100.00;96288.59;5051814;28;20527;-72
2022/11/25 07:08:45;;;;;;;26.47;12.00;;;;;;;1.27;100.00;96245.81;5054768;28;20448;-73
2022/11/25 07:11:24;;;;;;;46.10;11.00;;;;;;;1.66;100.00;96281.56;5035918;28;20433;-73
2022/11/25 07:13:57;;;;;;;26.47;10.60;;;;;;;1.62;100.00;96289.13;5033523;28;20474;-73
2022/11/25 07:16:24;;;;;;;35.47;11.70;;;;;;;1.57;100.00;96278.72;5033282;28;20446;-73
2022/11/25 07:18:51;;;;;;;50.60;12.87;;;;;;;1.49;100.00;96268.88;5033301;28;20465;-73
2022/11/25 07:21:23;;;;;;;28.40;12.37;;;;;;;1.64;100.00;96292.25;5024991;28;20471;-73
2022/11/25 07:23:51;;;;;;;50.43;14.77;;;;;;;1.54;100.00;96287.09;5034453;28;20422;-73
2022/11/25 07:26:22;;;;;;;29.23;12.40;;;;;;;1.53;100.00;96287.34;5033195;28;20438;-73
2022/11/25 07:28:50;;;;;;;25.60;11.47;;;;;;;1.51;100.00;96279.03;5024815;28;20554;-73
2022/11/25 07:31:20;;;;;;;34.27;12.57;;;;;;;1.51;100.00;96279.81;5033130;28;20442;-73
2022/11/25 07:34:04;;;;;;;27.77;13.03;;;;;;;1.33;100.00;96257.75;5034252;28;20465;-73
2022/11/25 07:36:32;;;;;;;23.40;12.50;;;;;;;1.44;100.00;96280.09;5046664;28;20552;-73
2022/11/25 07:39:02;;;;;;;26.23;10.57;;;;;;;1.55;100.00;96286.03;5032776;28;20554;-74
2022/11/25 07:41:29;;;;;;;28.70;13.10;;;;;;;1.69;100.00;96300.03;5034287;28;20758;-74
2022/11/25 07:43:58;;;;;;;22.90;13.37;;;;;;;1.45;100.00;96255.59;5034096;28;20500;-75
2022/11/25 07:46:27;;;;;;;22.70;11.80;;;;;;;1.99;100.00;96309.47;5032804;28;20446;-74
2022/11/25 07:48:56;;;;;;;22.90;13.20;;;;;;;1.88;100.00;96320.25;5033012;28;20465;-74
2022/11/25 07:51:26;;;;;;;25.10;11.33;;;;;;;1.88;100.00;96315.03;5046652;28;20795;-74
2022/11/25 07:53:54;;;;;;;20.60;11.30;;;;;;;2.02;100.00;96321.22;5032597;28;20965;-74
2022/11/25 07:56:22;;;;;;;23.90;10.60;;;;;;;1.95;100.00;96331.94;5045820;28;20479;-74
2022/11/25 07:58:48;;;;;;;19.80;11.17;;;;;;;1.85;100.00;96299.94;5032666;28;20468;-74
2022/11/25 08:01:17;;;;;;;19.93;10.93;;;;;;;1.91;100.00;96337.97;5038186;28;20441;-74
2022/11/25 08:03:45;;;;;;;14.77;9.10;;;;;;;1.69;100.00;96310.44;5042903;28;20433;-74
2022/11/25 08:06:15;;;;;;;21.17;12.13;;;;;;;2.00;100.00;96344.94;5037363;28;20927;-74
2022/11/25 08:08:42;;;;;;;14.57;8.97;;;;;;;1.89;100.00;96327.03;5040130;28;20470;-74
2022/11/25 08:11:12;;;;;;;20.17;11.53;;;;;;;2.09;100.00;96352.97;5016002;28;20481;-74
2022/11/25 08:13:38;;;;;;;19.27;11.17;;;;;;;2.07;100.00;96352.44;5015894;28;20823;-74
2022/11/25 08:16:06;;;;;;;15.67;9.70;;;;;;;1.92;100.00;96326.47;5032530;28;20465;-74
2022/11/25 08:18:33;;;;;;;15.80;11.50;;;;;;;1.78;100.00;96300.25;5032265;28;20569;-74
2022/11/25 08:21:05;;;;;;;16.83;10.70;;;;;;;2.23;100.00;96353.91;5035464;28;20619;-74
2022/11/25 08:23:33;;;;;;;15.50;9.53;;;;;;;1.96;100.00;96322.28;5051823;28;20442;-74
2022/11/25 08:26:09;;;;;;;16.20;12.10;;;;;;;2.15;100.00;96359.72;5032267;28;20428;-74
2022/11/25 08:28:36;;;;;;;23.80;10.40;;;;;;;2.30;100.00;96357.00;5040876;28;20524;-74
2022/11/25 08:31:18;;;;;;;17.77;11.50;;;;;;;2.30;100.00;96362.22;5031969;28;20438;-74
2022/11/25 08:33:45;;;;;;;15.17;10.60;;;;;;;2.15;100.00;96338.06;5050851;28;20457;-74
2022/11/25 08:36:12;;;;;;;18.37;9.97;;;;;;;2.31;100.00;96368.97;5035312;28;20449;-74
2022/11/25 08:38:39;;;;;;;17.23;12.67;;;;;;;2.33;100.00;96368.72;5038287;28;20462;-74
2022/11/25 08:41:15;;;;;;;16.10;10.83;;;;;;;2.38;100.00;96376.47;5052247;28;20433;-74
2022/11/25 08:43:42;;;;;;;15.50;11.33;;;;;;;2.45;100.00;96374.34;5020063;28;20429;-74
2022/11/25 08:46:15;;;;;;;12.90;9.67;;;;;;;2.18;100.00;96337.53;5031564;28;20445;-74
2022/11/25 08:48:43;;;;;;;17.10;11.90;;;;;;;2.32;100.00;96386.19;5033033;28;20508;-74
2022/11/25 08:51:13;;;;;;;19.77;11.50;;;;;;;2.47;100.00;96384.53;5046560;28;20445;-74
2022/11/25 08:53:41;;;;;;;16.20;10.80;;;;;;;2.23;100.00;96364.34;5043172;28;20545;-74
2022/11/25 08:56:09;;;;;;;15.40;9.60;;;;;;;2.45;100.00;96386.63;5033547;28;20436;-74
2022/11/25 08:58:36;;;;;;;13.47;10.20;;;;;;;2.44;100.00;96398.91;5042587;28;20854;-74
2022/11/25 09:01:05;;;;;;;15.80;9.70;;;;;;;2.32;100.00;96369.75;5031648;28;20469;-73
2022/11/25 09:03:33;;;;;;;15.00;9.40;;;;;;;2.42;100.00;96381.97;5031641;28;20434;-74
2022/11/25 09:06:01;;;;;;;13.80;10.40;;;;;;;2.53;100.00;96393.84;5046481;28;20534;-74
2022/11/25 09:08:29;;;;;;;11.73;9.50;;;;;;;1.83;100.00;96292.38;5031390;28;20469;-74
2022/11/25 09:10:56;;;;;;;13.20;9.30;;;;;;;2.46;100.00;96399.41;5014896;28;20478;-74
2022/11/25 09:13:23;;;;;;;13.53;8.63;;;;;;;2.48;100.00;96397.28;5035762;28;20461;-74
2022/11/25 09:15:52;;;;;;;11.70;10.07;;;;;;;2.36;100.00;96384.59;5048389;28;20502;-74
2022/11/25 09:18:19;;;;;;;12.00;10.00;;;;;;;2.37;100.00;96391.34;5051721;28;20541;-74
2022/11/25 09:20:46;;;;;;;15.70;10.53;;;;;;;2.53;100.00;96406.91;5016645;28;20953;-74
2022/11/25 09:23:13;;;;;;;13.60;10.70;;;;;;;2.42;100.00;96382.75;5019951;28;20438;-74
2022/11/25 09:25:39;;;;;;;14.30;10.03;;;;;;;2.50;100.00;96392.56;5055122;28;20496;-74
2022/11/25 09:28:06;;;;;;;14.83;9.37;;;;;;;2.45;100.00;96392.63;5043250;28;21000;-74
2022/11/25 09:30:33;;;;;;;12.67;9.83;;;;;;;2.49;100.00;96390.25;5015157;28;20434;-74
2022/11/25 09:32:59;;;;;;;13.13;10.13;;;;;;;2.50;100.00;96402.22;5042953;28;20462;-74
2022/11/25 09:35:26;;;;;;;11.63;10.37;;;;;;;2.46;100.00;96394.19;5047714;28;20442;-74
2022/11/25 09:37:53;;;;;;;12.47;10.43;;;;;;;2.46;100.00;96391.56;5039000;28;20435;-74
2022/11/25 09:40:32;;;;;;;13.03;10.67;;;;;;;2.48;100.00;96386.06;5049053;28;20463;-74
2022/11/25 09:49:25;;;;;;;13.33;10.43;;;;;;;2.84;100.00;96412.69;5021807;28;20489;-74
2022/11/25 09:52:29;;;;;;;15.47;9.97;;;;;;;2.87;100.00;96420.75;5017466;28;20450;-74
2022/11/25 09:55:09;;;;;;;13.10;10.73;;;;;;;2.74;100.00;96384.03;5030324;28;20433;-74
2022/11/25 09:57:41;;;;;;;14.20;9.10;;;;;;;2.97;100.00;96418.03;5030331;28;20438;-74
2022/11/25 10:00:21;;;;;;;12.53;9.00;;;;;;;2.84;100.00;96400.41;5031647;28;20478;-74
2022/11/25 10:03:34;;;;;;;10.50;9.40;;;;;;;3.09;100.00;96428.13;5017063;28;20441;-74
2022/11/25 10:06:03;;;;;;;15.50;9.90;;;;;;;2.90;100.00;96395.91;5028509;28;20564;-74
2022/11/25 10:08:39;;;;;;;11.80;9.93;;;;;;;3.13;100.00;96434.34;5033789;28;20499;-74
2022/11/25 10:11:26;;;;;;;11.53;9.40;;;;;;;3.29;100.00;96431.59;5047057;28;20532;-74
2022/11/25 10:13:59;;;;;;;13.20;9.90;;;;;;;3.28;100.00;96432.66;5031109;28;20465;-74
2022/11/25 10:16:41;;;;;;;15.43;10.20;;;;;;;3.24;100.00;96408.91;5051898;28;20417;-74
2022/11/25 10:19:23;;;;;;;10.57;9.47;;;;;;;3.47;100.00;96423.84;5031509;28;20543;-74
2022/11/25 10:21:51;;;;;;;13.50;10.70;;;;;;;3.44;100.00;96413.13;5029869;28;20449;-75
2022/11/25 10:24:20;;;;;;;11.77;10.60;;;;;;;3.42;100.00;96416.03;5023497;28;20521;-74
2022/11/25 10:26:57;;;;;;;13.07;10.77;;;;;;;3.70;100.00;96421.47;5036611;28;20492;-74
2022/11/25 10:29:27;;;;;;;12.07;9.33;;;;;;;3.44;100.00;96402.69;5036326;28;20497;-74
2022/11/25 10:32:03;;;;;;;11.13;9.30;;;;;;;3.42;100.00;96374.22;5037137;28;20417;-74
2022/11/25 10:34:38;;;;;;;12.93;10.00;;;;;;;3.76;100.00;96455.16;5035476;28;20493;-73
2022/11/25 10:37:13;;;;;;;11.70;8.97;;;;;;;3.82;100.00;96445.41;5049132;28;20438;-74
2022/11/25 10:39:40;;;;;;;12.27;9.77;;;;;;;3.99;100.00;96445.69;5018371;28;20461;-73
2022/11/25 10:42:16;;;;;;;10.00;9.00;;;;;;;4.06;100.00;96443.53;5027234;28;20464;-73
2022/11/25 10:44:43;;;;;;;10.40;8.43;;;;;;;3.94;100.00;96431.91;5037754;28;20448;-73
2022/11/25 10:47:43;;;;;;;10.20;9.10;;;;;;;3.91;100.00;96429.88;5016869;28;20512;-73
2022/11/25 10:50:25;;;;;;;11.30;8.90;;;;;;;3.66;100.00;96430.94;5030908;28;20442;-73
2022/11/25 10:53:00;;;;;;;11.63;8.33;;;;;;;3.88;100.00;96427.81;5030849;28;20514;-73
2022/11/25 10:55:30;;;;;;;11.47;8.30;;;;;;;3.85;100.00;96436.97;5010037;28;20526;-74
2022/11/25 10:57:58;;;;;;;10.50;8.20;;;;;;;3.83;100.00;96429.41;5009708;28;20450;-74
2022/11/25 11:00:32;;;;;;;7.27;6.53;;;;;;;3.95;100.00;96433.47;5029551;28;20450;-74
2022/11/25 11:03:19;;;;;;;8.27;7.37;;;;;;;3.70;100.00;96398.72;5029762;28;20493;-74
2022/11/25 11:05:48;;;;;;;11.73;8.30;;;;;;;3.80;100.00;96403.06;5030368;28;20802;-74
2022/11/25 11:08:19;;;;;;;8.03;6.80;;;;;;;4.00;100.00;96428.16;5035729;28;20461;-74
2022/11/25 11:11:07;;;;;;;9.20;8.10;;;;;;;3.99;100.00;96430.00;5033876;28;20497;-73
2022/11/25 11:13:33;;;;;;;8.90;7.33;;;;;;;3.65;100.00;96377.88;5049413;28;20467;-73
2022/11/25 11:16:00;;;;;;;8.97;7.50;;;;;;;3.83;100.00;96389.41;5032714;28;20527;-74
2022/11/25 11:18:40;;;;;;;10.47;9.37;;;;;;;4.25;100.00;96427.06;5049201;28;20481;-74
2022/11/25 11:21:22;;;;;;;14.67;8.67;;;;;;;3.92;100.00;96389.59;5041947;28;20953;-74
2022/11/25 11:23:54;;;;;;;8.03;7.07;;;;;;;4.08;100.00;96417.09;5031788;28;20469;-74
2022/11/25 11:26:27;;;;;;;8.70;7.57;;;;;;;4.34;100.00;96412.28;5039274;28;20421;-73
2022/11/25 11:29:15;;;;;;;9.13;7.57;;;;;;;4.24;100.00;96400.13;5026550;28;20462;-74
2022/11/25 11:31:56;;;;;;;13.07;8.60;;;;;;;4.20;100.00;96396.53;5012852;28;20441;-74
2022/11/25 11:34:53;;;;;;;11.83;7.63;;;;;;;4.20;100.00;96398.34;5029162;28;20580;-74
2022/11/25 11:37:20;;;;;;;9.07;7.17;;;;;;;4.20;100.00;96406.22;5037275;28;20820;-73
2022/11/25 11:39:49;;;;;;;11.33;8.67;;;;;;;4.40;100.00;96404.06;5030315;28;20581;-74
2022/11/25 11:42:49;;;;;;;11.20;8.20;;;;;;;4.36;100.00;96399.69;5040698;28;20449;-74
2022/11/25 11:45:25;;;;;;;12.13;7.40;;;;;;;4.23;100.00;96395.16;5015289;28;21127;-74
2022/11/25 11:48:19;;;;;;;12.60;8.67;;;;;;;4.15;100.00;96379.06;5012765;28;20930;-73
2022/11/25 11:50:55;;;;;;;10.07;8.00;;;;;;;4.21;100.00;96363.28;5016871;28;20886;-73
2022/11/25 11:53:57;;;;;;;9.30;7.87;;;;;;;4.61;100.00;96388.84;5033291;28;21059;-74
2022/11/25 11:56:33;;;;;;;9.60;6.90;;;;;;;4.69;100.00;96396.06;5017200;28;20479;-74
2022/11/25 11:59:20;;;;;;;8.47;7.60;;;;;;;4.45;100.00;96401.38;5047915;28;20459;-74